createdAt,value
2022-08-19T00:00:31.244Z,21.40
2022-08-19T00:01:31.302Z,20.20
2022-08-19T00:02:31.285Z,19.80
2022-08-19T00:03:31.191Z,21.30
2022-08-19T00:04:31.297Z,20.50
2022-08-19T00:05:31.163Z,17.80
2022-08-19T00:06:31.154Z,19.70
2022-08-19T00:07:31.135Z,19.10
2022-08-19T00:08:31.120Z,18.80
2022-08-19T00:09:31.135Z,18.10
2022-08-19T00:10:31.081Z,19.10
2022-08-19T00:11:31.236Z,18.70
2022-08-19T00:12:31.101Z,20.10
2022-08-19T00:13:31.046Z,17.90
2022-08-19T00:14:31.020Z,16.40
2022-08-19T00:15:31.029Z,20.70
2022-08-19T00:16:30.979Z,20.60
2022-08-19T00:17:30.942Z,22.00
2022-08-19T00:18:30.963Z,20.00
2022-08-19T00:19:30.950Z,21.00
2022-08-19T00:20:30.901Z,20.30
2022-08-19T00:21:30.874Z,19.70
2022-08-19T00:22:30.911Z,20.80
2022-08-19T00:23:30.883Z,20.70
2022-08-19T00:24:30.991Z,22.30
2022-08-19T00:25:30.933Z,22.20
2022-08-19T00:26:30.839Z,19.50
2022-08-19T00:27:30.828Z,24.00
2022-08-19T00:28:30.804Z,22.70
2022-08-19T00:29:30.906Z,20.90
2022-08-19T00:30:30.821Z,22.30
2022-08-19T00:31:30.741Z,22.90
2022-08-19T00:32:30.750Z,22.90
2022-08-19T00:33:31.117Z,21.80
2022-08-19T00:34:30.854Z,24.50
2022-08-19T00:35:30.803Z,21.60
2022-08-19T00:36:30.615Z,22.50
2022-08-19T00:37:30.655Z,23.50
2022-08-19T00:38:35.271Z,21.10
2022-08-19T00:39:31.774Z,21.40
2022-08-19T00:40:30.661Z,22.80
2022-08-19T00:41:30.692Z,20.90
2022-08-19T00:42:30.586Z,22.10
2022-08-19T00:43:30.523Z,23.20
2022-08-19T00:44:30.517Z,22.40
2022-08-19T00:45:30.560Z,20.20
2022-08-19T00:46:30.508Z,22.90
2022-08-19T00:47:30.436Z,21.00
2022-08-19T00:48:30.403Z,20.40
2022-08-19T00:49:30.412Z,19.50
2022-08-19T00:50:30.374Z,21.60
2022-08-19T00:51:30.404Z,21.30
2022-08-19T00:52:30.788Z,20.50
2022-08-19T00:53:30.321Z,23.30
2022-08-19T00:54:31.288Z,22.50
2022-08-19T00:55:30.283Z,23.30
2022-08-19T00:56:30.273Z,22.60
2022-08-19T00:57:30.248Z,22.90
2022-08-19T00:58:30.231Z,21.10
2022-08-19T01:00:01.128Z,23.30
2022-08-19T01:00:31.311Z,21.20
2022-08-19T01:01:30.276Z,18.20
2022-08-19T01:02:30.184Z,19.80
2022-08-19T01:03:57.192Z,20.40
2022-08-19T01:04:31.405Z,20.70
2022-08-19T01:05:30.162Z,22.20
2022-08-19T01:06:30.221Z,21.30
2022-08-19T01:07:35.926Z,20.50
2022-08-19T01:08:31.173Z,23.30
2022-08-19T01:09:30.064Z,21.40
2022-08-19T01:10:34.731Z,21.90
2022-08-19T01:11:32.074Z,18.90
2022-08-19T01:12:29.983Z,21.50
2022-08-19T01:13:30.135Z,21.90
2022-08-19T01:14:31.099Z,17.80
2022-08-19T01:15:30.036Z,22.10
2022-08-19T01:16:30.024Z,22.80
2022-08-19T01:17:30.017Z,19.10
2022-08-19T01:18:29.932Z,19.30
2022-08-19T01:19:29.893Z,22.40
2022-08-19T01:20:29.926Z,21.10
2022-08-19T01:21:29.921Z,18.10
2022-08-19T01:22:33.486Z,20.70
2022-08-19T01:23:30.907Z,21.90
2022-08-19T01:24:29.867Z,16.40
2022-08-19T01:25:29.766Z,17.40
2022-08-19T01:26:31.193Z,18.20
2022-08-19T01:27:43.294Z,18.00
2022-08-19T01:28:33.972Z,19.60
2022-08-19T01:29:29.723Z,20.20
2022-08-19T01:30:29.743Z,19.70
2022-08-19T01:31:29.660Z,19.10
2022-08-19T01:32:32.402Z,19.50
2022-08-19T01:33:29.619Z,20.60
2022-08-19T01:34:29.636Z,19.80
2022-08-19T01:35:29.698Z,22.30
2022-08-19T01:36:29.614Z,21.90
2022-08-19T01:37:29.607Z,18.70
2022-08-19T01:38:29.542Z,19.30
2022-08-19T01:39:29.582Z,19.70
2022-08-19T01:40:29.591Z,20.50
2022-08-19T01:41:29.480Z,20.60
2022-08-19T01:42:30.430Z,20.60
2022-08-19T01:43:29.455Z,18.50
2022-08-19T01:44:29.486Z,20.40
2022-08-19T01:45:29.563Z,20.50
2022-08-19T01:46:29.473Z,18.60
2022-08-19T01:47:29.540Z,17.90
2022-08-19T01:48:29.425Z,17.90
2022-08-19T01:49:29.437Z,16.90
2022-08-19T01:50:29.456Z,18.20
2022-08-19T01:51:29.478Z,16.60
2022-08-19T01:52:30.431Z,19.40
2022-08-19T01:53:30.621Z,18.40
2022-08-19T01:54:29.372Z,21.80
2022-08-19T01:55:29.270Z,19.60
2022-08-19T01:56:29.326Z,19.50
2022-08-19T01:57:29.280Z,19.60
2022-08-19T01:58:29.290Z,19.00
2022-08-19T01:59:29.254Z,19.30
2022-08-19T02:00:29.300Z,20.20
2022-08-19T02:01:31.321Z,20.30
2022-08-19T02:02:29.114Z,18.00
2022-08-19T02:03:29.273Z,20.80
2022-08-19T02:04:29.190Z,18.70
2022-08-19T02:05:30.168Z,20.30
2022-08-19T02:06:29.055Z,23.60
2022-08-19T02:07:29.138Z,19.00
2022-08-19T02:08:29.635Z,19.60
2022-08-19T02:09:29.103Z,19.70
2022-08-19T02:10:29.122Z,20.90
2022-08-19T02:11:28.961Z,21.90
2022-08-19T02:12:28.966Z,21.80
2022-08-19T02:13:28.925Z,21.60
2022-08-19T02:14:28.928Z,21.50
2022-08-19T02:15:29.398Z,20.70
2022-08-19T02:16:28.898Z,19.30
2022-08-19T02:17:28.850Z,19.00
2022-08-19T02:18:28.858Z,21.00
2022-08-19T02:19:28.863Z,21.80
2022-08-19T02:20:28.831Z,21.20
2022-08-19T02:21:28.791Z,19.50
2022-08-19T02:22:28.798Z,20.80
2022-08-19T02:23:28.756Z,22.60
2022-08-19T02:24:28.796Z,20.80
2022-08-19T02:25:28.864Z,20.60
2022-08-19T02:26:28.755Z,20.80
2022-08-19T02:27:28.764Z,18.20
2022-08-19T02:28:28.667Z,22.80
2022-08-19T02:29:28.723Z,20.00
2022-08-19T02:30:28.677Z,20.50
2022-08-19T02:31:28.705Z,18.80
2022-08-19T02:32:28.660Z,17.60
2022-08-19T02:33:28.749Z,19.40
2022-08-19T02:34:28.636Z,19.10
2022-08-19T02:35:28.616Z,19.70
2022-08-19T02:36:28.588Z,19.60
2022-08-19T02:37:28.575Z,18.20
2022-08-19T02:38:28.501Z,16.70
2022-08-19T02:39:28.563Z,18.40
2022-08-19T02:40:28.519Z,19.00
2022-08-19T02:41:28.455Z,18.20
2022-08-19T02:42:28.462Z,18.70
2022-08-19T02:43:28.433Z,19.50
2022-08-19T02:44:31.623Z,19.20
2022-08-19T02:45:28.484Z,23.30
2022-08-19T02:46:28.529Z,20.80
2022-08-19T02:47:28.401Z,21.60
2022-08-19T02:48:28.341Z,20.20
2022-08-19T02:49:28.375Z,18.30
2022-08-19T02:50:28.433Z,21.00
2022-08-19T02:51:28.334Z,19.70
2022-08-19T02:52:28.351Z,18.70
2022-08-19T02:53:28.242Z,19.10
2022-08-19T02:54:28.272Z,20.90
2022-08-19T02:55:28.261Z,20.80
2022-08-19T02:56:28.250Z,22.30
2022-08-19T02:57:28.168Z,20.00
2022-08-19T02:58:28.154Z,17.90
2022-08-19T02:59:28.131Z,19.70
2022-08-19T03:00:28.162Z,21.00
2022-08-19T03:01:28.169Z,22.10
2022-08-19T03:02:28.174Z,22.20
2022-08-19T03:03:28.067Z,21.40
2022-08-19T03:04:28.055Z,18.80
2022-08-19T03:05:46.861Z,19.60
2022-08-19T03:06:29.113Z,19.10
2022-08-19T03:07:28.593Z,19.00
2022-08-19T03:08:28.124Z,20.20
2022-08-19T03:09:28.039Z,21.10
2022-08-19T03:10:28.050Z,20.00
2022-08-19T03:11:28.002Z,19.80
2022-08-19T03:12:29.058Z,17.90
2022-08-19T03:13:28.015Z,19.70
2022-08-19T03:14:27.994Z,20.30
2022-08-19T03:15:27.969Z,19.00
2022-08-19T03:16:27.998Z,18.00
2022-08-19T03:17:27.891Z,17.30
2022-08-19T03:18:27.854Z,18.80
2022-08-19T03:19:27.845Z,18.10
2022-08-19T03:20:27.872Z,18.90
2022-08-19T03:21:27.860Z,19.00
2022-08-19T03:22:27.922Z,16.40
2022-08-19T03:23:27.781Z,18.90
2022-08-19T03:24:27.757Z,21.60
2022-08-19T03:25:27.833Z,17.80
2022-08-19T03:26:27.717Z,19.00
2022-08-19T03:27:32.478Z,16.80
2022-08-19T03:28:29.643Z,19.60
2022-08-19T03:29:30.622Z,20.10
2022-08-19T03:30:27.631Z,19.90
2022-08-19T03:31:43.518Z,19.70
2022-08-19T03:32:32.802Z,18.60
2022-08-19T03:33:28.579Z,19.50
2022-08-19T03:34:27.590Z,19.40
2022-08-19T03:35:27.549Z,17.00
2022-08-19T03:36:27.553Z,18.90
2022-08-19T03:37:27.608Z,19.70
2022-08-19T03:38:27.518Z,19.60
2022-08-19T03:39:27.603Z,19.00
2022-08-19T03:40:27.533Z,19.00
2022-08-19T03:41:27.479Z,18.40
2022-08-19T03:42:38.481Z,18.90
2022-08-19T03:43:28.418Z,19.00
2022-08-19T03:44:27.360Z,16.60
2022-08-19T03:45:27.371Z,17.80
2022-08-19T03:46:27.441Z,17.70
2022-08-19T03:47:27.436Z,17.80
2022-08-19T03:48:27.339Z,18.40
2022-08-19T03:49:28.420Z,17.20
2022-08-19T03:50:27.301Z,17.20
2022-08-19T03:51:30.603Z,17.80
2022-08-19T03:52:27.383Z,18.90
2022-08-19T03:53:27.215Z,19.90
2022-08-19T03:54:27.326Z,17.10
2022-08-19T03:55:27.257Z,19.10
2022-08-19T03:56:27.174Z,18.70
2022-08-19T03:57:31.663Z,15.60
2022-08-19T03:58:27.244Z,17.20
2022-08-19T03:59:27.231Z,17.00
2022-08-19T04:00:27.173Z,17.50
2022-08-19T04:01:33.061Z,16.10
2022-08-19T04:02:28.106Z,17.90
2022-08-19T04:03:27.070Z,18.60
2022-08-19T04:04:29.265Z,17.40
2022-08-19T04:05:27.588Z,21.70
2022-08-19T04:06:27.044Z,18.30
2022-08-19T04:07:27.065Z,18.20
2022-08-19T04:08:27.055Z,17.50
2022-08-19T04:09:27.050Z,15.10
2022-08-19T04:10:27.039Z,16.30
2022-08-19T04:11:43.081Z,14.50
2022-08-19T04:12:27.958Z,15.20
2022-08-19T04:13:26.911Z,16.00
2022-08-19T04:14:26.845Z,15.80
2022-08-19T04:15:26.918Z,16.80
2022-08-19T04:16:35.212Z,16.70
2022-08-19T04:17:27.840Z,17.20
2022-08-19T04:18:26.873Z,16.60
2022-08-19T04:19:26.800Z,18.00
2022-08-19T04:20:26.842Z,16.10
2022-08-19T04:21:26.895Z,19.10
2022-08-19T04:22:26.799Z,16.70
2022-08-19T04:23:26.757Z,17.50
2022-08-19T04:24:27.339Z,17.30
2022-08-19T04:25:26.769Z,15.80
2022-08-19T04:26:26.684Z,14.90
2022-08-19T04:27:26.657Z,19.00
2022-08-19T04:28:27.658Z,17.90
2022-08-19T04:29:26.607Z,18.30
2022-08-19T04:30:26.711Z,19.20
2022-08-19T04:31:26.677Z,17.70
2022-08-19T04:32:26.645Z,18.60
2022-08-19T04:33:28.456Z,18.40
2022-08-19T04:34:26.544Z,17.50
2022-08-19T04:35:26.486Z,19.60
2022-08-19T04:36:26.599Z,17.00
2022-08-19T04:37:26.555Z,19.40
2022-08-19T04:38:26.856Z,17.70
2022-08-19T04:39:26.518Z,19.40
2022-08-19T04:40:26.482Z,17.90
2022-08-19T04:41:26.400Z,16.80
2022-08-19T04:42:30.683Z,18.50
2022-08-19T04:43:26.359Z,17.70
2022-08-19T04:44:26.372Z,16.80
2022-08-19T04:45:26.407Z,15.20
2022-08-19T04:46:39.463Z,19.40
2022-08-19T04:47:47.651Z,16.70
2022-08-19T04:48:27.963Z,14.70
2022-08-19T04:49:26.282Z,15.90
2022-08-19T04:50:26.276Z,16.40
2022-08-19T04:51:26.284Z,17.60
2022-08-19T04:52:26.243Z,15.70
2022-08-19T04:53:26.232Z,14.70
2022-08-19T04:54:37.335Z,15.00
2022-08-19T04:55:27.199Z,17.40
2022-08-19T04:56:26.202Z,18.50
2022-08-19T04:57:26.150Z,17.50
2022-08-19T04:58:26.072Z,17.00
2022-08-19T04:59:26.107Z,16.80
2022-08-19T05:00:26.087Z,17.80
2022-08-19T05:01:26.085Z,18.20
2022-08-19T05:02:26.053Z,18.40
2022-08-19T05:03:30.093Z,18.60
2022-08-19T05:04:26.991Z,18.70
2022-08-19T05:05:26.076Z,20.00
2022-08-19T05:06:26.025Z,18.90
2022-08-19T05:07:25.909Z,18.80
2022-08-19T05:08:31.539Z,17.40
2022-08-19T05:09:26.990Z,15.60
2022-08-19T05:10:25.917Z,19.10
2022-08-19T05:11:26.680Z,20.20
2022-08-19T05:12:29.134Z,20.50
2022-08-19T05:13:25.897Z,19.10
2022-08-19T05:14:25.855Z,22.00
2022-08-19T05:15:25.795Z,22.60
2022-08-19T05:16:25.911Z,21.80
2022-08-19T05:17:28.523Z,23.70
2022-08-19T05:18:26.832Z,24.50
2022-08-19T05:19:25.769Z,26.80
2022-08-19T05:20:25.746Z,23.40
2022-08-19T05:21:25.854Z,23.80
2022-08-19T05:22:25.657Z,25.10
2022-08-19T05:23:25.799Z,24.70
2022-08-19T05:24:25.748Z,24.10
2022-08-19T05:25:25.615Z,24.10
2022-08-19T05:26:26.092Z,22.60
2022-08-19T05:27:25.694Z,25.60
2022-08-19T05:28:25.570Z,25.60
2022-08-19T05:29:25.544Z,22.20
2022-08-19T05:30:42.154Z,21.40
2022-08-19T05:31:26.696Z,24.50
2022-08-19T05:32:25.667Z,22.70
2022-08-19T05:33:25.574Z,20.40
2022-08-19T05:34:25.572Z,20.40
2022-08-19T05:35:25.520Z,21.20
2022-08-19T05:36:25.502Z,22.10
2022-08-19T05:37:25.545Z,19.60
2022-08-19T05:38:25.438Z,20.20
2022-08-19T05:39:25.491Z,19.00
2022-08-19T05:40:25.405Z,19.60
2022-08-19T05:41:25.361Z,18.50
2022-08-19T05:42:25.411Z,20.10
2022-08-19T05:43:25.365Z,17.80
2022-08-19T05:44:25.339Z,18.00
2022-08-19T05:45:25.289Z,18.80
2022-08-19T05:46:28.193Z,16.70
2022-08-19T05:47:25.299Z,18.50
2022-08-19T05:48:25.382Z,17.10
2022-08-19T05:49:25.260Z,15.60
2022-08-19T05:50:25.193Z,15.10
2022-08-19T05:51:28.828Z,16.10
2022-08-19T05:52:26.569Z,15.60
2022-08-19T05:53:25.259Z,16.50
2022-08-19T05:54:25.184Z,16.70
2022-08-19T05:55:25.101Z,13.60
2022-08-19T05:56:25.193Z,15.80
2022-08-19T05:57:25.233Z,14.30
2022-08-19T05:58:25.066Z,13.90
2022-08-19T05:59:25.726Z,14.30
2022-08-19T06:00:25.032Z,12.90
2022-08-19T06:01:25.088Z,12.80
2022-08-19T06:02:25.127Z,12.00
2022-08-19T06:03:24.992Z,14.30
2022-08-19T06:04:25.034Z,13.60
2022-08-19T06:05:25.147Z,13.30
2022-08-19T06:06:25.070Z,13.40
2022-08-19T06:07:24.991Z,11.50
2022-08-19T06:08:34.119Z,11.30
2022-08-19T06:09:25.987Z,13.40
2022-08-19T06:10:24.903Z,12.20
2022-08-19T06:11:24.939Z,13.70
2022-08-19T06:12:25.025Z,13.80
2022-08-19T06:13:24.913Z,13.10
2022-08-19T06:14:28.047Z,13.40
2022-08-19T06:15:24.847Z,13.30
2022-08-19T06:18:10.353Z,12.30
2022-08-19T06:19:11.501Z,11.30
2022-08-19T06:20:11.907Z,11.60
2022-08-19T06:21:11.512Z,15.40
2022-08-19T06:22:11.452Z,11.90
2022-08-19T06:23:11.439Z,11.90
2022-08-19T06:24:12.446Z,11.00
2022-08-19T06:25:11.418Z,12.30
2022-08-19T06:26:11.428Z,13.60
2022-08-19T06:27:11.376Z,13.60
2022-08-19T06:28:15.023Z,14.00
2022-08-19T06:29:12.344Z,10.60
2022-08-19T06:30:12.326Z,11.70
2022-08-19T06:31:11.352Z,10.80
2022-08-19T06:32:11.288Z,12.30
2022-08-19T06:33:11.322Z,8.70
2022-08-19T06:34:11.990Z,10.30
2022-08-19T06:35:11.244Z,11.60
2022-08-19T06:36:11.283Z,11.30
2022-08-19T06:37:11.209Z,11.20
2022-08-19T06:38:11.209Z,12.10
2022-08-19T06:39:11.193Z,10.70
2022-08-19T06:40:11.266Z,10.50
2022-08-19T06:41:11.184Z,10.70
2022-08-19T06:42:11.270Z,9.90
2022-08-19T06:43:11.118Z,11.00
2022-08-19T06:44:13.277Z,10.50
2022-08-19T06:45:11.081Z,10.10
2022-08-19T06:46:11.114Z,11.60
2022-08-19T06:47:14.199Z,12.40
2022-08-19T06:48:11.651Z,10.80
2022-08-19T06:49:11.077Z,9.90
2022-08-19T06:50:11.006Z,11.40
2022-08-19T06:51:11.079Z,11.40
2022-08-19T06:52:13.945Z,13.30
2022-08-19T06:53:10.978Z,10.40
2022-08-19T06:54:19.233Z,10.70
2022-08-19T06:55:11.934Z,11.00
2022-08-19T06:56:10.973Z,11.70
2022-08-19T06:57:10.895Z,10.50
2022-08-19T06:58:10.885Z,9.90
2022-08-19T06:59:10.864Z,11.60
2022-08-19T07:00:12.804Z,10.40
2022-08-19T07:01:11.878Z,9.20
2022-08-19T07:02:10.851Z,11.30
2022-08-19T07:03:13.316Z,8.60
2022-08-19T07:04:12.076Z,9.40
2022-08-19T07:05:10.776Z,10.80
2022-08-19T07:06:21.339Z,9.60
2022-08-19T07:07:20.962Z,9.50
2022-08-19T07:08:11.740Z,8.70
2022-08-19T07:09:10.708Z,10.10
2022-08-19T07:10:10.690Z,8.70
2022-08-19T07:11:10.867Z,9.00
2022-08-19T07:12:10.668Z,7.60
2022-08-19T07:13:10.653Z,8.60
2022-08-19T07:14:16.673Z,10.90
2022-08-19T07:15:11.621Z,7.70
2022-08-19T07:16:10.633Z,8.40
2022-08-19T07:17:10.585Z,8.60
2022-08-19T07:18:11.752Z,10.30
2022-08-19T07:19:15.739Z,9.80
2022-08-19T07:20:11.551Z,9.30
2022-08-19T07:21:10.549Z,8.90
2022-08-19T07:22:13.154Z,8.80
2022-08-19T07:23:10.536Z,7.40
2022-08-19T07:24:11.479Z,8.40
2022-08-19T07:25:10.484Z,9.10
2022-08-19T07:26:10.481Z,9.20
2022-08-19T07:27:10.608Z,8.10
2022-08-19T07:28:20.194Z,8.30
2022-08-19T07:29:11.410Z,8.50
2022-08-19T07:30:11.734Z,9.10
2022-08-19T07:31:10.399Z,8.70
2022-08-19T07:32:11.579Z,9.60
2022-08-19T07:33:10.340Z,8.30
2022-08-19T07:34:10.330Z,8.80
2022-08-19T07:35:10.317Z,9.60
2022-08-19T07:36:10.337Z,9.60
2022-08-19T07:37:10.287Z,9.40
2022-08-19T07:38:10.265Z,9.40
2022-08-19T07:39:10.252Z,8.20
2022-08-19T07:40:10.301Z,9.60
2022-08-19T07:41:10.279Z,8.70
2022-08-19T07:42:10.225Z,10.50
2022-08-19T07:43:13.943Z,8.70
2022-08-19T07:44:11.177Z,9.40
2022-08-19T07:45:10.151Z,9.80
2022-08-19T07:47:47.073Z,8.60
2022-08-19T07:48:11.119Z,8.60
2022-08-19T07:49:10.111Z,9.30
2022-08-19T07:50:10.088Z,8.70
2022-08-19T07:51:10.089Z,9.00
2022-08-19T07:52:10.054Z,8.70
2022-08-19T07:53:10.050Z,9.10
2022-08-19T07:54:10.022Z,9.40
2022-08-19T07:55:39.822Z,9.30
2022-08-19T07:56:11.028Z,9.50
2022-08-19T07:57:09.984Z,8.30
2022-08-19T07:58:09.973Z,7.20
2022-08-19T07:59:09.943Z,8.40
2022-08-19T08:00:09.951Z,8.90
2022-08-19T08:01:09.955Z,9.50
2022-08-19T08:02:09.965Z,9.00
2022-08-19T08:03:09.884Z,10.50
2022-08-19T08:04:10.115Z,10.50
2022-08-19T08:05:09.865Z,9.70
2022-08-19T08:06:09.886Z,8.90
2022-08-19T08:07:09.836Z,11.60
2022-08-19T08:08:09.813Z,7.70
2022-08-19T08:09:09.887Z,8.90
2022-08-19T08:10:21.062Z,11.20
2022-08-19T08:11:11.873Z,11.50
2022-08-19T08:12:18.424Z,9.30
2022-08-19T08:13:11.887Z,9.10
2022-08-19T08:14:09.724Z,9.60
2022-08-19T08:15:12.507Z,9.90
2022-08-19T08:16:10.218Z,10.10
2022-08-19T08:17:10.918Z,9.00
2022-08-19T08:18:09.666Z,9.10
2022-08-19T08:19:14.815Z,9.10
2022-08-19T08:20:10.632Z,8.20
2022-08-19T08:21:09.681Z,9.50
2022-08-19T08:22:09.637Z,10.60
2022-08-19T08:23:09.676Z,7.80
2022-08-19T08:24:09.596Z,9.10
2022-08-19T08:25:09.560Z,8.10
2022-08-19T08:26:09.575Z,8.90
2022-08-19T08:27:11.201Z,8.50
2022-08-19T08:28:09.513Z,7.90
2022-08-19T08:29:12.843Z,7.50
2022-08-19T08:30:09.481Z,9.00
2022-08-19T08:31:09.916Z,8.00
2022-08-19T08:32:14.224Z,8.50
2022-08-19T08:33:10.478Z,6.60
2022-08-19T08:34:09.499Z,9.60
2022-08-19T08:35:09.415Z,7.70
2022-08-19T08:36:09.419Z,7.70
2022-08-19T08:37:09.381Z,7.40
2022-08-19T08:38:09.353Z,9.10
2022-08-19T08:39:09.344Z,7.60
2022-08-19T08:40:13.101Z,6.30
2022-08-19T08:41:10.330Z,6.90
2022-08-19T08:42:10.336Z,7.30
2022-08-19T08:43:11.429Z,5.90
2022-08-19T08:44:09.266Z,7.30
2022-08-19T08:45:10.249Z,7.60
2022-08-19T08:46:09.253Z,6.20
2022-08-19T08:47:09.218Z,6.50
2022-08-19T08:48:22.493Z,5.60
2022-08-19T08:49:10.198Z,6.90
2022-08-19T08:50:09.178Z,5.50
2022-08-19T08:51:09.234Z,6.30
2022-08-19T08:52:09.141Z,5.40
2022-08-19T08:53:09.125Z,6.90
2022-08-19T08:54:09.864Z,6.10
2022-08-19T08:55:10.109Z,7.10
2022-08-19T08:56:09.126Z,7.60
2022-08-19T08:57:09.056Z,7.80
2022-08-19T08:58:09.070Z,7.30
2022-08-19T08:59:09.040Z,5.70
2022-08-19T09:00:15.159Z,6.20
2022-08-19T09:01:10.035Z,6.90
2022-08-19T09:02:08.980Z,6.10
2022-08-19T09:03:08.966Z,7.80
2022-08-19T09:04:08.953Z,7.70
2022-08-19T09:05:08.929Z,6.60
2022-08-19T09:06:11.851Z,8.70
2022-08-19T09:07:18.474Z,6.60
2022-08-19T09:08:09.914Z,7.90
2022-08-19T09:09:11.861Z,8.40
2022-08-19T09:10:08.861Z,8.00
2022-08-19T09:11:08.871Z,6.80
2022-08-19T09:12:08.836Z,7.20
2022-08-19T09:13:09.374Z,7.30
2022-08-19T09:14:12.938Z,7.10
2022-08-19T09:15:09.783Z,7.70
2022-08-19T09:16:08.805Z,9.40
2022-08-19T09:17:08.769Z,7.50
2022-08-19T09:18:08.734Z,7.00
2022-08-19T09:19:09.744Z,6.30
2022-08-19T09:20:09.025Z,7.30
2022-08-19T09:21:08.716Z,5.90
2022-08-19T09:22:08.667Z,7.10
2022-08-19T09:23:08.657Z,6.20
2022-08-19T09:24:08.631Z,6.40
2022-08-19T09:25:08.640Z,6.60
2022-08-19T09:26:08.639Z,8.80
2022-08-19T09:27:18.614Z,6.30
2022-08-19T09:28:20.583Z,5.40
2022-08-19T09:29:09.554Z,6.60
2022-08-19T09:30:08.559Z,6.00
2022-08-19T09:31:08.563Z,5.60
2022-08-19T09:32:08.525Z,6.00
2022-08-19T09:33:09.506Z,6.60
2022-08-19T09:34:08.545Z,6.30
2022-08-19T09:35:09.490Z,5.90
2022-08-19T09:36:08.827Z,5.90
2022-08-19T09:37:08.453Z,6.70
2022-08-19T09:38:08.421Z,6.30
2022-08-19T09:39:16.266Z,6.30
2022-08-19T09:40:09.496Z,6.20
2022-08-19T09:41:08.461Z,6.60
2022-08-19T09:42:16.614Z,6.60
2022-08-19T09:43:09.832Z,5.40
2022-08-19T09:44:08.357Z,7.40
2022-08-19T09:45:10.513Z,7.50
2022-08-19T09:46:08.331Z,7.90
2022-08-19T09:47:08.328Z,8.00
2022-08-19T09:48:09.462Z,7.20
2022-08-19T09:49:08.248Z,7.00
2022-08-19T09:50:08.246Z,9.30
2022-08-19T09:51:08.249Z,8.60
2022-08-19T09:52:08.206Z,6.30
2022-08-19T09:53:08.199Z,6.70
2022-08-19T09:54:08.168Z,7.80
2022-08-19T09:55:08.285Z,7.60
2022-08-19T09:56:08.311Z,7.80
2022-08-19T09:57:08.136Z,6.70
2022-08-19T09:58:08.109Z,7.70
2022-08-19T09:59:08.103Z,7.60
2022-08-19T10:00:08.077Z,5.90
2022-08-19T10:01:08.133Z,6.70
2022-08-19T10:02:10.798Z,7.40
2022-08-19T10:03:08.033Z,6.20
2022-08-19T10:04:19.727Z,5.80
2022-08-19T10:05:10.009Z,6.70
2022-08-19T10:06:15.183Z,6.40
2022-08-19T10:07:08.974Z,5.80
2022-08-19T10:08:13.396Z,7.40
2022-08-19T10:09:09.145Z,6.20
2022-08-19T10:10:07.952Z,5.40
2022-08-19T10:11:28.357Z,6.30
2022-08-19T10:12:11.118Z,6.50
2022-08-19T10:13:07.876Z,7.00
2022-08-19T10:14:07.889Z,4.80
2022-08-19T10:15:07.867Z,6.70
2022-08-19T10:16:07.858Z,7.80
2022-08-19T10:17:17.885Z,5.70
2022-08-19T10:18:08.791Z,6.30
2022-08-19T10:19:07.808Z,7.10
2022-08-19T10:20:07.763Z,6.20
2022-08-19T10:21:07.781Z,5.30
2022-08-19T10:22:07.740Z,7.80
2022-08-19T10:23:07.720Z,7.10
2022-08-19T10:24:09.349Z,5.80
2022-08-19T10:25:07.690Z,5.40
2022-08-19T10:26:07.730Z,5.20
2022-08-19T10:27:07.657Z,6.50
2022-08-19T10:28:10.581Z,6.60
2022-08-19T10:29:09.179Z,5.50
2022-08-19T10:30:10.007Z,5.90
2022-08-19T10:31:07.626Z,7.00
2022-08-19T10:32:09.811Z,4.90
2022-08-19T10:33:11.012Z,5.30
2022-08-19T10:34:09.992Z,5.10
2022-08-19T10:35:07.553Z,7.00
2022-08-19T10:36:07.552Z,5.80
2022-08-19T10:37:10.169Z,5.00
2022-08-19T10:38:07.520Z,5.00
2022-08-19T10:39:07.467Z,9.70
2022-08-19T10:40:07.495Z,5.50
2022-08-19T10:41:07.474Z,5.60
2022-08-19T10:42:07.414Z,5.90
2022-08-19T10:43:07.407Z,6.10
2022-08-19T10:44:07.388Z,6.00
2022-08-19T10:45:07.363Z,4.80
2022-08-19T10:46:13.914Z,5.30
2022-08-19T10:47:17.693Z,4.90
2022-08-19T10:48:08.315Z,6.40
2022-08-19T10:49:07.319Z,6.10
2022-08-19T10:50:07.274Z,8.20
2022-08-19T10:51:07.288Z,6.50
2022-08-19T10:52:10.276Z,5.60
2022-08-19T10:53:08.050Z,5.40
2022-08-19T10:54:07.299Z,6.00
2022-08-19T10:55:08.848Z,6.00
2022-08-19T10:56:07.219Z,5.00
2022-08-19T10:57:07.220Z,6.20
2022-08-19T10:58:07.432Z,4.40
2022-08-19T10:59:07.161Z,5.30
2022-08-19T11:00:07.119Z,4.80
2022-08-19T11:01:07.177Z,5.40
2022-08-19T11:02:07.104Z,5.20
2022-08-19T11:03:39.450Z,5.70
2022-08-19T11:04:07.128Z,8.00
2022-08-19T11:05:12.684Z,5.70
2022-08-19T11:06:08.071Z,6.50
2022-08-19T11:07:07.064Z,4.40
2022-08-19T11:08:17.690Z,4.50
2022-08-19T11:09:07.980Z,5.70
2022-08-19T11:10:10.279Z,5.60
2022-08-19T11:11:09.001Z,5.90
2022-08-19T11:12:06.936Z,5.20
2022-08-19T11:13:07.024Z,5.80
2022-08-19T11:14:06.898Z,5.20
2022-08-19T11:15:06.892Z,5.90
2022-08-19T11:16:07.985Z,4.60
2022-08-19T11:17:07.863Z,5.50
2022-08-19T11:18:06.834Z,4.60
2022-08-19T11:19:07.838Z,5.20
2022-08-19T11:20:06.959Z,5.00
2022-08-19T11:21:06.855Z,6.60
2022-08-19T11:22:06.778Z,7.70
2022-08-19T11:23:06.764Z,5.80
2022-08-19T11:24:06.755Z,6.00
2022-08-19T11:25:06.774Z,5.40
2022-08-19T11:26:06.756Z,4.20
2022-08-19T11:27:06.707Z,5.60
2022-08-19T11:28:06.718Z,5.50
2022-08-19T11:29:06.697Z,5.70
2022-08-19T11:30:06.648Z,6.10
2022-08-19T11:31:06.674Z,6.10
2022-08-19T11:32:06.620Z,5.30
2022-08-19T11:33:06.599Z,6.20
2022-08-19T11:34:06.587Z,5.80
2022-08-19T11:35:06.562Z,6.60
2022-08-19T11:36:06.584Z,5.80
2022-08-19T11:37:06.537Z,5.90
2022-08-19T11:38:09.778Z,5.70
2022-08-19T11:39:07.533Z,7.40
2022-08-19T11:40:06.660Z,5.80
2022-08-19T11:41:06.513Z,5.60
2022-08-19T11:42:06.486Z,5.70
2022-08-19T11:43:06.447Z,6.20
2022-08-19T11:44:06.450Z,5.90
2022-08-19T11:45:06.416Z,4.70
2022-08-19T11:46:06.429Z,5.70
2022-08-19T11:47:09.303Z,5.50
2022-08-19T11:48:06.357Z,5.40
2022-08-19T11:49:09.572Z,6.20
2022-08-19T11:50:07.340Z,6.20
2022-08-19T11:51:06.349Z,6.60
2022-08-19T11:52:06.322Z,5.60
2022-08-19T11:53:06.290Z,4.70
2022-08-19T11:54:06.283Z,5.10
2022-08-19T11:55:06.247Z,5.30
2022-08-19T11:56:06.266Z,6.10
2022-08-19T11:57:06.220Z,4.00
2022-08-19T11:58:06.211Z,5.00
2022-08-19T11:59:08.816Z,4.60
2022-08-19T12:00:06.175Z,4.80
2022-08-19T12:01:06.204Z,4.80
2022-08-19T12:02:06.181Z,5.30
2022-08-19T12:03:06.192Z,5.90
2022-08-19T12:04:06.187Z,4.90
2022-08-19T12:05:09.089Z,6.40
2022-08-19T12:06:08.135Z,6.30
2022-08-19T12:07:06.074Z,5.00
2022-08-19T12:08:06.070Z,5.40
2022-08-19T12:09:06.052Z,6.20
2022-08-19T12:10:06.056Z,5.60
2022-08-19T12:11:06.012Z,5.60
2022-08-19T12:12:06.021Z,5.10
2022-08-19T12:13:06.006Z,6.80
2022-08-19T12:14:05.976Z,7.90
2022-08-19T12:15:05.952Z,5.30
2022-08-19T12:16:05.936Z,6.50
2022-08-19T12:17:05.947Z,5.30
2022-08-19T12:18:05.933Z,4.30
2022-08-19T12:19:05.889Z,5.10
2022-08-19T12:20:05.871Z,4.20
2022-08-19T12:21:05.888Z,5.30
2022-08-19T12:22:05.851Z,5.10
2022-08-19T12:23:05.830Z,5.20
2022-08-19T12:24:05.806Z,6.10
2022-08-19T12:25:05.894Z,5.80
2022-08-19T12:26:05.814Z,6.00
2022-08-19T12:27:05.768Z,8.10
2022-08-19T12:28:06.748Z,6.20
2022-08-19T12:29:05.727Z,5.60
2022-08-19T12:30:05.735Z,6.50
2022-08-19T12:31:05.731Z,5.80
2022-08-19T12:32:05.682Z,7.00
2022-08-19T12:33:05.691Z,4.10
2022-08-19T12:34:05.659Z,6.20
2022-08-19T12:35:05.662Z,7.90
2022-08-19T12:36:05.674Z,6.40
2022-08-19T12:37:05.624Z,4.70
2022-08-19T12:38:05.609Z,5.50
2022-08-19T12:39:05.584Z,5.00
2022-08-19T12:40:05.608Z,5.60
2022-08-19T12:41:05.587Z,5.50
2022-08-19T12:42:05.542Z,6.90
2022-08-19T12:43:05.505Z,6.10
2022-08-19T12:44:05.500Z,4.60
2022-08-19T12:45:05.905Z,6.50
2022-08-19T12:46:05.479Z,5.10
2022-08-19T12:47:05.451Z,6.90
2022-08-19T12:48:33.019Z,5.50
2022-08-19T12:49:09.147Z,6.60
2022-08-19T12:50:07.041Z,5.00
2022-08-19T12:51:06.416Z,6.10
2022-08-19T12:52:05.417Z,5.70
2022-08-19T12:53:05.343Z,4.10
2022-08-19T12:54:05.320Z,3.70
2022-08-19T12:55:05.307Z,5.70
2022-08-19T12:56:05.382Z,5.40
2022-08-19T12:57:05.286Z,6.20
2022-08-19T12:58:05.260Z,4.50
2022-08-19T12:59:05.256Z,4.20
2022-08-19T13:00:05.723Z,5.50
2022-08-19T13:01:05.301Z,5.60
2022-08-19T13:02:05.194Z,5.00
2022-08-19T13:03:05.181Z,5.60
2022-08-19T13:04:05.184Z,7.10
2022-08-19T13:05:05.248Z,6.10
2022-08-19T13:06:05.157Z,5.10
2022-08-19T13:07:05.147Z,4.80